General Aviation Weather

Text Reports

Enter one or more of the following location identifiers separated by a space:

Zip Code, Four-Character ICAO or Three-Character IATA airport codes.

METAR - Aviation Routine Weather Report
KFWN - Sussex, New Jersey
Updated at 11:53 AM GMT on April 24, 2014 (7:53 AM EDT):
METAR KFWN 241153Z AUTO VRB06G15KT 10SM CLR 06/M08 A2995 RMK AO2 SLP143 7//// T00611078 10061 20028 53023 $
TAF - Terminal Area Forecast
KFWN - Sussex, New Jersey
Updated at 11:53 AM GMT on April 24, 2014 (7:53 AM EDT):
No TAF is currently available for this location.
Decoded:
No decoded TAF is available.
PIREP - Pilot Weather Report
KFWN - Sussex, New Jersey
Updated at 11:53 AM GMT on April 24, 2014 (7:53 AM EDT):
No PIREP is currently available for this location.
AIRMET - Airmens Meteorological Information
KFWN - Sussex, New Jersey
Updated at 11:53 AM GMT on April 24, 2014 (7:53 AM EDT):
No AIRMET is currently available for this location.
SIGMET - Significant Meteorological Information
KFWN - Sussex, New Jersey
Updated at 11:53 AM GMT on April 24, 2014 (7:53 AM EDT):
No SIGMET is currently available for this location.
NOTAM - Notice to Airmen
KFWN - Sussex, New Jersey
Updated at 11:53 AM GMT on April 24, 2014 (7:53 AM EDT):
No NOTAM is currently available for this location.
Forecast Area
KFWN - Sussex, New Jersey
Updated at 11:53 AM GMT on April 24, 2014 (7:53 AM EDT):
No NOTAM is currently available for this location.
Aviation Weather Maps